sensor_id;sensor_type;location;lat;lon;timestamp;P1;durP1;ratioP1;P2;durP2;ratioP2
19814;SDS011;10067;53.092;8.800;2023-03-01T00:00:53;24.70;;;16.77;;
19814;SDS011;10067;53.092;8.800;2023-03-01T00:03:21;23.17;;;15.17;;
19814;SDS011;10067;53.092;8.800;2023-03-01T00:05:48;24.93;;;16.07;;
19814;SDS011;10067;53.092;8.800;2023-03-01T00:08:14;26.10;;;15.43;;
19814;SDS011;10067;53.092;8.800;2023-03-01T00:10:40;27.13;;;15.80;;
19814;SDS011;10067;53.092;8.800;2023-03-01T00:13:07;24.20;;;14.47;;
19814;SDS011;10067;53.092;8.800;2023-03-01T00:15:33;22.17;;;15.00;;
19814;SDS011;10067;53.092;8.800;2023-03-01T00:18:03;20.57;;;13.97;;
19814;SDS011;10067;53.092;8.800;2023-03-01T00:20:31;23.27;;;14.53;;
19814;SDS011;10067;53.092;8.800;2023-03-01T00:22:57;26.17;;;16.03;;
19814;SDS011;10067;53.092;8.800;2023-03-01T00:25:24;28.13;;;16.27;;
19814;SDS011;10067;53.092;8.800;2023-03-01T00:27:50;31.50;;;16.27;;
19814;SDS011;10067;53.092;8.800;2023-03-01T00:30:17;25.50;;;15.57;;
19814;SDS011;10067;53.092;8.800;2023-03-01T00:32:43;29.50;;;16.63;;
19814;SDS011;10067;53.092;8.800;2023-03-01T00:35:09;26.47;;;15.33;;
19814;SDS011;10067;53.092;8.800;2023-03-01T00:37:37;24.43;;;14.73;;
19814;SDS011;10067;53.092;8.800;2023-03-01T00:40:04;23.27;;;14.20;;
19814;SDS011;10067;53.092;8.800;2023-03-01T00:42:31;23.43;;;13.27;;
19814;SDS011;10067;53.092;8.800;2023-03-01T00:44:57;20.27;;;12.33;;
19814;SDS011;10067;53.092;8.800;2023-03-01T00:47:24;19.63;;;12.10;;
19814;SDS011;10067;53.092;8.800;2023-03-01T00:49:50;20.47;;;11.70;;
19814;SDS011;10067;53.092;8.800;2023-03-01T00:52:16;17.00;;;11.50;;
19814;SDS011;10067;53.092;8.800;2023-03-01T00:54:44;18.73;;;11.27;;
19814;SDS011;10067;53.092;8.800;2023-03-01T00:57:11;21.40;;;12.27;;
19814;SDS011;10067;53.092;8.800;2023-03-01T00:59:37;24.20;;;12.30;;
19814;SDS011;10067;53.092;8.800;2023-03-01T01:02:03;16.83;;;11.67;;
19814;SDS011;10067;53.092;8.800;2023-03-01T01:04:30;17.60;;;11.37;;
19814;SDS011;10067;53.092;8.800;2023-03-01T01:06:56;18.90;;;12.70;;
19814;SDS011;10067;53.092;8.800;2023-03-01T01:09:22;21.17;;;12.77;;
19814;SDS011;10067;53.092;8.800;2023-03-01T01:11:50;20.27;;;11.77;;
19814;SDS011;10067;53.092;8.800;2023-03-01T01:14:17;21.77;;;12.13;;
19814;SDS011;10067;53.092;8.800;2023-03-01T01:16:44;19.97;;;12.43;;
19814;SDS011;10067;53.092;8.800;2023-03-01T01:19:11;18.13;;;11.47;;
19814;SDS011;10067;53.092;8.800;2023-03-01T01:21:38;18.43;;;11.80;;
19814;SDS011;10067;53.092;8.800;2023-03-01T01:24:04;22.73;;;12.37;;
19814;SDS011;10067;53.092;8.800;2023-03-01T01:26:32;18.77;;;11.33;;
19814;SDS011;10067;53.092;8.800;2023-03-01T01:29:00;19.97;;;12.67;;
19814;SDS011;10067;53.092;8.800;2023-03-01T01:31:27;21.27;;;12.87;;
19814;SDS011;10067;53.092;8.800;2023-03-01T01:33:53;18.17;;;12.87;;
19814;SDS011;10067;53.092;8.800;2023-03-01T01:36:20;16.97;;;11.70;;
19814;SDS011;10067;53.092;8.800;2023-03-01T01:38:47;19.03;;;12.67;;
19814;SDS011;10067;53.092;8.800;2023-03-01T01:41:13;18.17;;;12.37;;
19814;SDS011;10067;53.092;8.800;2023-03-01T01:43:41;19.70;;;11.80;;
19814;SDS011;10067;53.092;8.800;2023-03-01T01:46:13;21.03;;;12.47;;
19814;SDS011;10067;53.092;8.800;2023-03-01T01:48:42;21.00;;;12.00;;
19814;SDS011;10067;53.092;8.800;2023-03-01T01:51:10;20.47;;;12.17;;
19814;SDS011;10067;53.092;8.800;2023-03-01T01:53:37;19.33;;;11.60;;
19814;SDS011;10067;53.092;8.800;2023-03-01T01:56:05;21.37;;;11.97;;
19814;SDS011;10067;53.092;8.800;2023-03-01T01:58:33;18.20;;;11.40;;
19814;SDS011;10067;53.092;8.800;2023-03-01T02:00:59;19.60;;;11.67;;
19814;SDS011;10067;53.092;8.800;2023-03-01T02:03:27;20.30;;;12.13;;
19814;SDS011;10067;53.092;8.800;2023-03-01T02:05:59;22.80;;;12.77;;
19814;SDS011;10067;53.092;8.800;2023-03-01T02:08:30;18.97;;;12.00;;
19814;SDS011;10067;53.092;8.800;2023-03-01T02:10:57;19.97;;;11.40;;
19814;SDS011;10067;53.092;8.800;2023-03-01T02:13:24;18.27;;;10.90;;
19814;SDS011;10067;53.092;8.800;2023-03-01T02:15:51;18.57;;;11.83;;
19814;SDS011;10067;53.092;8.800;2023-03-01T02:18:18;18.60;;;11.77;;
19814;SDS011;10067;53.092;8.800;2023-03-01T02:20:50;20.00;;;12.23;;
19814;SDS011;10067;53.092;8.800;2023-03-01T02:23:17;19.90;;;12.13;;
19814;SDS011;10067;53.092;8.800;2023-03-01T02:25:46;17.70;;;11.83;;
19814;SDS011;10067;53.092;8.800;2023-03-01T02:30:59;22.07;;;11.83;;
19814;SDS011;10067;53.092;8.800;2023-03-01T02:33:44;17.97;;;11.83;;
19814;SDS011;10067;53.092;8.800;2023-03-01T02:36:14;18.37;;;11.80;;
19814;SDS011;10067;53.092;8.800;2023-03-01T02:38:41;17.97;;;11.17;;
19814;SDS011;10067;53.092;8.800;2023-03-01T02:41:08;19.70;;;12.10;;
19814;SDS011;10067;53.092;8.800;2023-03-01T02:43:35;17.37;;;11.67;;
19814;SDS011;10067;53.092;8.800;2023-03-01T02:46:06;16.87;;;11.60;;
19814;SDS011;10067;53.092;8.800;2023-03-01T02:48:40;20.50;;;12.07;;
19814;SDS011;10067;53.092;8.800;2023-03-01T02:51:09;18.40;;;11.53;;
19814;SDS011;10067;53.092;8.800;2023-03-01T02:53:39;22.53;;;13.00;;
19814;SDS011;10067;53.092;8.800;2023-03-01T02:56:07;15.67;;;11.10;;
19814;SDS011;10067;53.092;8.800;2023-03-01T02:58:38;15.77;;;11.23;;
19814;SDS011;10067;53.092;8.800;2023-03-01T03:01:11;19.20;;;12.03;;
19814;SDS011;10067;53.092;8.800;2023-03-01T03:03:38;16.70;;;10.93;;
19814;SDS011;10067;53.092;8.800;2023-03-01T03:06:05;17.77;;;11.53;;
19814;SDS011;10067;53.092;8.800;2023-03-01T03:08:31;16.03;;;11.10;;
19814;SDS011;10067;53.092;8.800;2023-03-01T03:10:58;18.13;;;11.97;;
19814;SDS011;10067;53.092;8.800;2023-03-01T03:13:24;17.10;;;10.97;;
19814;SDS011;10067;53.092;8.800;2023-03-01T03:15:53;21.73;;;12.30;;
19814;SDS011;10067;53.092;8.800;2023-03-01T03:18:21;20.60;;;11.53;;
19814;SDS011;10067;53.092;8.800;2023-03-01T03:20:47;20.87;;;11.57;;
19814;SDS011;10067;53.092;8.800;2023-03-01T03:23:18;19.60;;;11.77;;
19814;SDS011;10067;53.092;8.800;2023-03-01T03:25:44;18.30;;;11.03;;
19814;SDS011;10067;53.092;8.800;2023-03-01T03:28:10;21.57;;;12.97;;
19814;SDS011;10067;53.092;8.800;2023-03-01T03:30:37;21.03;;;12.37;;
19814;SDS011;10067;53.092;8.800;2023-03-01T03:33:05;19.43;;;11.60;;
19814;SDS011;10067;53.092;8.800;2023-03-01T03:35:33;20.93;;;11.90;;
19814;SDS011;10067;53.092;8.800;2023-03-01T03:38:01;21.13;;;12.17;;
19814;SDS011;10067;53.092;8.800;2023-03-01T03:40:29;25.57;;;12.67;;
19814;SDS011;10067;53.092;8.800;2023-03-01T03:42:55;20.57;;;12.23;;
19814;SDS011;10067;53.092;8.800;2023-03-01T03:45:21;18.80;;;11.47;;
19814;SDS011;10067;53.092;8.800;2023-03-01T03:47:48;20.03;;;12.40;;
19814;SDS011;10067;53.092;8.800;2023-03-01T03:50:15;18.03;;;12.17;;
19814;SDS011;10067;53.092;8.800;2023-03-01T03:52:43;21.10;;;12.37;;
19814;SDS011;10067;53.092;8.800;2023-03-01T03:55:10;19.47;;;12.23;;
19814;SDS011;10067;53.092;8.800;2023-03-01T03:57:37;18.43;;;12.40;;
19814;SDS011;10067;53.092;8.800;2023-03-01T04:00:04;20.37;;;12.40;;
19814;SDS011;10067;53.092;8.800;2023-03-01T04:02:30;23.47;;;12.80;;
19814;SDS011;10067;53.092;8.800;2023-03-01T04:04:57;21.17;;;12.07;;
19814;SDS011;10067;53.092;8.800;2023-03-01T04:07:23;21.23;;;13.43;;
19814;SDS011;10067;53.092;8.800;2023-03-01T04:09:51;21.77;;;12.90;;
19814;SDS011;10067;53.092;8.800;2023-03-01T04:12:17;22.93;;;13.30;;
19814;SDS011;10067;53.092;8.800;2023-03-01T04:14:48;23.53;;;13.33;;
19814;SDS011;10067;53.092;8.800;2023-03-01T04:17:14;20.37;;;12.73;;
19814;SDS011;10067;53.092;8.800;2023-03-01T04:19:40;16.73;;;11.73;;
19814;SDS011;10067;53.092;8.800;2023-03-01T04:22:09;21.33;;;12.63;;
19814;SDS011;10067;53.092;8.800;2023-03-01T04:24:36;20.47;;;13.30;;
19814;SDS011;10067;53.092;8.800;2023-03-01T04:27:04;22.47;;;13.50;;
19814;SDS011;10067;53.092;8.800;2023-03-01T04:29:30;22.47;;;13.70;;
19814;SDS011;10067;53.092;8.800;2023-03-01T04:31:56;20.93;;;13.47;;
19814;SDS011;10067;53.092;8.800;2023-03-01T04:34:24;23.23;;;13.67;;
19814;SDS011;10067;53.092;8.800;2023-03-01T04:36:51;21.47;;;13.03;;
19814;SDS011;10067;53.092;8.800;2023-03-01T04:39:18;26.50;;;14.20;;
19814;SDS011;10067;53.092;8.800;2023-03-01T04:41:44;22.37;;;14.00;;
19814;SDS011;10067;53.092;8.800;2023-03-01T04:44:12;28.07;;;14.43;;
19814;SDS011;10067;53.092;8.800;2023-03-01T04:46:38;22.73;;;13.70;;
19814;SDS011;10067;53.092;8.800;2023-03-01T04:49:05;26.10;;;14.13;;
19814;SDS011;10067;53.092;8.800;2023-03-01T04:51:31;20.10;;;13.57;;
19814;SDS011;10067;53.092;8.800;2023-03-01T04:53:58;25.07;;;14.67;;
19814;SDS011;10067;53.092;8.800;2023-03-01T04:56:25;23.83;;;14.07;;
19814;SDS011;10067;53.092;8.800;2023-03-01T04:58:52;26.73;;;14.33;;
19814;SDS011;10067;53.092;8.800;2023-03-01T05:01:20;26.53;;;15.57;;
19814;SDS011;10067;53.092;8.800;2023-03-01T05:03:47;26.33;;;14.70;;
19814;SDS011;10067;53.092;8.800;2023-03-01T05:06:14;25.50;;;14.43;;
19814;SDS011;10067;53.092;8.800;2023-03-01T05:08:41;28.00;;;15.53;;
19814;SDS011;10067;53.092;8.800;2023-03-01T05:11:08;29.20;;;16.13;;
19814;SDS011;10067;53.092;8.800;2023-03-01T05:13:34;25.90;;;15.17;;
19814;SDS011;10067;53.092;8.800;2023-03-01T05:16:02;28.60;;;16.23;;
19814;SDS011;10067;53.092;8.800;2023-03-01T05:18:31;23.47;;;14.90;;
19814;SDS011;10067;53.092;8.800;2023-03-01T05:21:01;27.90;;;15.30;;
19814;SDS011;10067;53.092;8.800;2023-03-01T05:23:29;32.90;;;16.47;;
19814;SDS011;10067;53.092;8.800;2023-03-01T05:25:57;29.07;;;15.00;;
19814;SDS011;10067;53.092;8.800;2023-03-01T05:28:24;27.60;;;15.00;;
19814;SDS011;10067;53.092;8.800;2023-03-01T05:30:51;27.53;;;15.57;;
19814;SDS011;10067;53.092;8.800;2023-03-01T05:33:17;26.53;;;14.67;;
19814;SDS011;10067;53.092;8.800;2023-03-01T05:35:45;32.37;;;16.17;;
19814;SDS011;10067;53.092;8.800;2023-03-01T05:38:14;25.63;;;15.27;;
19814;SDS011;10067;53.092;8.800;2023-03-01T05:40:41;27.40;;;16.00;;
19814;SDS011;10067;53.092;8.800;2023-03-01T05:43:08;26.87;;;15.00;;
19814;SDS011;10067;53.092;8.800;2023-03-01T05:45:35;27.97;;;15.07;;
19814;SDS011;10067;53.092;8.800;2023-03-01T05:48:02;29.13;;;15.87;;
19814;SDS011;10067;53.092;8.800;2023-03-01T05:50:28;28.50;;;15.77;;
19814;SDS011;10067;53.092;8.800;2023-03-01T05:53:00;29.87;;;15.63;;
19814;SDS011;10067;53.092;8.800;2023-03-01T05:55:27;27.77;;;15.63;;
19814;SDS011;10067;53.092;8.800;2023-03-01T05:57:54;28.80;;;16.23;;
19814;SDS011;10067;53.092;8.800;2023-03-01T06:00:20;31.53;;;16.33;;
19814;SDS011;10067;53.092;8.800;2023-03-01T06:02:48;30.20;;;15.53;;
19814;SDS011;10067;53.092;8.800;2023-03-01T06:05:15;27.30;;;14.70;;
19814;SDS011;10067;53.092;8.800;2023-03-01T06:07:41;34.87;;;17.03;;
19814;SDS011;10067;53.092;8.800;2023-03-01T06:10:10;28.37;;;15.50;;
19814;SDS011;10067;53.092;8.800;2023-03-01T06:12:37;30.07;;;15.43;;
19814;SDS011;10067;53.092;8.800;2023-03-01T06:15:04;25.60;;;15.97;;
19814;SDS011;10067;53.092;8.800;2023-03-01T06:17:31;26.77;;;15.27;;
19814;SDS011;10067;53.092;8.800;2023-03-01T06:19:58;30.17;;;15.87;;
19814;SDS011;10067;53.092;8.800;2023-03-01T06:22:24;32.00;;;15.70;;
19814;SDS011;10067;53.092;8.800;2023-03-01T06:24:50;28.73;;;16.40;;
19814;SDS011;10067;53.092;8.800;2023-03-01T06:27:18;28.43;;;15.67;;
19814;SDS011;10067;53.092;8.800;2023-03-01T06:29:44;29.67;;;15.90;;
19814;SDS011;10067;53.092;8.800;2023-03-01T06:32:11;27.63;;;15.67;;
19814;SDS011;10067;53.092;8.800;2023-03-01T06:34:37;29.13;;;16.10;;
19814;SDS011;10067;53.092;8.800;2023-03-01T06:37:04;29.73;;;16.63;;
19814;SDS011;10067;53.092;8.800;2023-03-01T06:39:30;29.10;;;16.40;;
19814;SDS011;10067;53.092;8.800;2023-03-01T06:41:57;29.83;;;16.50;;
19814;SDS011;10067;53.092;8.800;2023-03-01T06:44:25;32.70;;;16.83;;
19814;SDS011;10067;53.092;8.800;2023-03-01T06:46:51;26.13;;;16.17;;
19814;SDS011;10067;53.092;8.800;2023-03-01T06:49:18;32.10;;;15.93;;
19814;SDS011;10067;53.092;8.800;2023-03-01T06:51:44;29.33;;;15.80;;
19814;SDS011;10067;53.092;8.800;2023-03-01T06:54:11;26.93;;;16.30;;
19814;SDS011;10067;53.092;8.800;2023-03-01T06:56:37;22.97;;;15.47;;
19814;SDS011;10067;53.092;8.800;2023-03-01T06:59:04;23.40;;;15.87;;
19814;SDS011;10067;53.092;8.800;2023-03-01T07:01:32;25.00;;;16.13;;
19814;SDS011;10067;53.092;8.800;2023-03-01T07:03:58;25.67;;;16.30;;
19814;SDS011;10067;53.092;8.800;2023-03-01T07:06:25;26.73;;;16.40;;
19814;SDS011;10067;53.092;8.800;2023-03-01T07:08:51;27.87;;;16.67;;
19814;SDS011;10067;53.092;8.800;2023-03-01T07:11:17;24.73;;;16.03;;
19814;SDS011;10067;53.092;8.800;2023-03-01T07:13:44;31.07;;;16.47;;
19814;SDS011;10067;53.092;8.800;2023-03-01T07:16:10;28.47;;;15.97;;
19814;SDS011;10067;53.092;8.800;2023-03-01T07:18:38;23.63;;;15.83;;
19814;SDS011;10067;53.092;8.800;2023-03-01T07:21:05;35.23;;;16.73;;
19814;SDS011;10067;53.092;8.800;2023-03-01T07:23:31;28.77;;;16.27;;
19814;SDS011;10067;53.092;8.800;2023-03-01T07:25:58;27.70;;;16.40;;
19814;SDS011;10067;53.092;8.800;2023-03-01T07:28:25;29.30;;;16.33;;
19814;SDS011;10067;53.092;8.800;2023-03-01T07:30:51;26.80;;;16.97;;
19814;SDS011;10067;53.092;8.800;2023-03-01T07:33:18;31.53;;;16.23;;
19814;SDS011;10067;53.092;8.800;2023-03-01T07:35:45;25.23;;;15.97;;
19814;SDS011;10067;53.092;8.800;2023-03-01T07:38:12;31.33;;;16.57;;
19814;SDS011;10067;53.092;8.800;2023-03-01T07:40:38;24.17;;;16.87;;
19814;SDS011;10067;53.092;8.800;2023-03-01T07:43:04;30.97;;;16.87;;
19814;SDS011;10067;53.092;8.800;2023-03-01T07:45:31;34.57;;;18.53;;
19814;SDS011;10067;53.092;8.800;2023-03-01T07:47:57;26.97;;;16.97;;
19814;SDS011;10067;53.092;8.800;2023-03-01T07:50:23;30.83;;;18.50;;
19814;SDS011;10067;53.092;8.800;2023-03-01T07:52:51;30.17;;;19.03;;
19814;SDS011;10067;53.092;8.800;2023-03-01T07:55:18;29.63;;;19.67;;
19814;SDS011;10067;53.092;8.800;2023-03-01T07:57:45;38.70;;;20.93;;
19814;SDS011;10067;53.092;8.800;2023-03-01T08:00:11;34.00;;;20.27;;
19814;SDS011;10067;53.092;8.800;2023-03-01T08:02:38;33.87;;;20.40;;
19814;SDS011;10067;53.092;8.800;2023-03-01T08:05:05;38.80;;;20.87;;
19814;SDS011;10067;53.092;8.800;2023-03-01T08:07:32;36.33;;;20.97;;
19814;SDS011;10067;53.092;8.800;2023-03-01T08:10:00;38.67;;;21.33;;
19814;SDS011;10067;53.092;8.800;2023-03-01T08:12:27;37.37;;;20.60;;
19814;SDS011;10067;53.092;8.800;2023-03-01T08:14:53;32.50;;;20.63;;
19814;SDS011;10067;53.092;8.800;2023-03-01T08:17:20;39.47;;;21.63;;
19814;SDS011;10067;53.092;8.800;2023-03-01T08:19:46;34.90;;;21.23;;
19814;SDS011;10067;53.092;8.800;2023-03-01T08:22:13;43.47;;;22.37;;
19814;SDS011;10067;53.092;8.800;2023-03-01T08:24:39;39.30;;;22.43;;
19814;SDS011;10067;53.092;8.800;2023-03-01T08:27:07;41.13;;;22.63;;
19814;SDS011;10067;53.092;8.800;2023-03-01T08:29:33;38.97;;;20.73;;
19814;SDS011;10067;53.092;8.800;2023-03-01T08:32:00;34.93;;;20.97;;
19814;SDS011;10067;53.092;8.800;2023-03-01T08:34:26;37.60;;;20.73;;
19814;SDS011;10067;53.092;8.800;2023-03-01T08:36:53;38.07;;;20.23;;
19814;SDS011;10067;53.092;8.800;2023-03-01T08:39:20;32.23;;;18.57;;
19814;SDS011;10067;53.092;8.800;2023-03-01T08:41:46;32.53;;;18.83;;
19814;SDS011;10067;53.092;8.800;2023-03-01T08:44:14;34.87;;;18.97;;
19814;SDS011;10067;53.092;8.800;2023-03-01T08:46:42;29.83;;;18.80;;
19814;SDS011;10067;53.092;8.800;2023-03-01T08:49:09;35.23;;;18.63;;
19814;SDS011;10067;53.092;8.800;2023-03-01T08:51:36;29.43;;;17.13;;
19814;SDS011;10067;53.092;8.800;2023-03-01T08:54:03;32.43;;;17.10;;
19814;SDS011;10067;53.092;8.800;2023-03-01T08:56:29;26.63;;;16.83;;
19814;SDS011;10067;53.092;8.800;2023-03-01T08:58:56;25.57;;;15.07;;
19814;SDS011;10067;53.092;8.800;2023-03-01T09:01:25;22.73;;;14.27;;
19814;SDS011;10067;53.092;8.800;2023-03-01T09:03:51;20.93;;;13.10;;
19814;SDS011;10067;53.092;8.800;2023-03-01T09:06:18;23.60;;;13.23;;
19814;SDS011;10067;53.092;8.800;2023-03-01T09:08:45;27.00;;;12.20;;
19814;SDS011;10067;53.092;8.800;2023-03-01T09:11:13;20.43;;;12.20;;
19814;SDS011;10067;53.092;8.800;2023-03-01T09:13:40;17.60;;;11.23;;
19814;SDS011;10067;53.092;8.800;2023-03-01T09:16:07;17.90;;;11.83;;
19814;SDS011;10067;53.092;8.800;2023-03-01T09:18:35;19.77;;;11.80;;
19814;SDS011;10067;53.092;8.800;2023-03-01T09:21:02;20.83;;;11.67;;
19814;SDS011;10067;53.092;8.800;2023-03-01T09:23:32;19.13;;;11.30;;
19814;SDS011;10067;53.092;8.800;2023-03-01T09:25:59;21.13;;;13.00;;
19814;SDS011;10067;53.092;8.800;2023-03-01T09:28:25;15.30;;;9.93;;
19814;SDS011;10067;53.092;8.800;2023-03-01T09:30:51;14.07;;;9.70;;
19814;SDS011;10067;53.092;8.800;2023-03-01T09:33:18;17.50;;;9.97;;
19814;SDS011;10067;53.092;8.800;2023-03-01T09:35:46;13.43;;;8.60;;
19814;SDS011;10067;53.092;8.800;2023-03-01T09:38:13;16.60;;;8.77;;
19814;SDS011;10067;53.092;8.800;2023-03-01T09:40:43;16.23;;;9.25;;
19814;SDS011;10067;53.092;8.800;2023-03-01T09:43:14;13.27;;;7.82;;
19814;SDS011;10067;53.092;8.800;2023-03-01T09:45:41;17.92;;;8.70;;
19814;SDS011;10067;53.092;8.800;2023-03-01T09:48:12;17.58;;;9.93;;
19814;SDS011;10067;53.092;8.800;2023-03-01T09:50:41;18.85;;;9.85;;
19814;SDS011;10067;53.092;8.800;2023-03-01T09:53:11;14.65;;;8.90;;
19814;SDS011;10067;53.092;8.800;2023-03-01T09:55:44;13.32;;;9.23;;
19814;SDS011;10067;53.092;8.800;2023-03-01T09:58:23;13.63;;;7.90;;
19814;SDS011;10067;53.092;8.800;2023-03-01T10:00:52;8.70;;;5.53;;
19814;SDS011;10067;53.092;8.800;2023-03-01T10:03:21;10.15;;;4.80;;
19814;SDS011;10067;53.092;8.800;2023-03-01T10:05:56;9.25;;;4.15;;
19814;SDS011;10067;53.092;8.800;2023-03-01T10:08:31;8.05;;;4.20;;
19814;SDS011;10067;53.092;8.800;2023-03-01T10:11:01;6.35;;;4.50;;
19814;SDS011;10067;53.092;8.800;2023-03-01T10:13:29;5.85;;;3.90;;
19814;SDS011;10067;53.092;8.800;2023-03-01T10:16:03;5.18;;;3.60;;
19814;SDS011;10067;53.092;8.800;2023-03-01T10:18:31;5.15;;;3.47;;
19814;SDS011;10067;53.092;8.800;2023-03-01T10:21:02;8.45;;;3.30;;
19814;SDS011;10067;53.092;8.800;2023-03-01T10:23:31;6.72;;;4.22;;
19814;SDS011;10067;53.092;8.800;2023-03-01T10:26:07;10.93;;;5.25;;
19814;SDS011;10067;53.092;8.800;2023-03-01T10:28:38;8.38;;;4.88;;
19814;SDS011;10067;53.092;8.800;2023-03-01T10:31:07;7.43;;;4.47;;
19814;SDS011;10067;53.092;8.800;2023-03-01T10:33:37;7.65;;;5.00;;
19814;SDS011;10067;53.092;8.800;2023-03-01T10:36:04;7.72;;;5.05;;
19814;SDS011;10067;53.092;8.800;2023-03-01T10:38:46;7.30;;;5.50;;
19814;SDS011;10067;53.092;8.800;2023-03-01T10:41:13;11.50;;;7.03;;
19814;SDS011;10067;53.092;8.800;2023-03-01T10:43:43;10.18;;;6.45;;
19814;SDS011;10067;53.092;8.800;2023-03-01T10:46:21;10.70;;;7.28;;
19814;SDS011;10067;53.092;8.800;2023-03-01T10:48:51;11.10;;;7.15;;
19814;SDS011;10067;53.092;8.800;2023-03-01T10:51:31;12.38;;;7.00;;
19814;SDS011;10067;53.092;8.800;2023-03-01T10:54:09;11.50;;;7.63;;
19814;SDS011;10067;53.092;8.800;2023-03-01T10:56:48;13.05;;;7.88;;
19814;SDS011;10067;53.092;8.800;2023-03-01T10:59:21;8.43;;;6.88;;
19814;SDS011;10067;53.092;8.800;2023-03-01T11:01:52;8.55;;;7.32;;
19814;SDS011;10067;53.092;8.800;2023-03-01T11:04:27;10.52;;;7.22;;
19814;SDS011;10067;53.092;8.800;2023-03-01T11:06:58;11.73;;;8.48;;
19814;SDS011;10067;53.092;8.800;2023-03-01T11:09:26;10.40;;;8.00;;
19814;SDS011;10067;53.092;8.800;2023-03-01T11:12:03;12.52;;;8.77;;
19814;SDS011;10067;53.092;8.800;2023-03-01T11:14:31;10.18;;;8.38;;
19814;SDS011;10067;53.092;8.800;2023-03-01T11:17:00;12.30;;;8.80;;
19814;SDS011;10067;53.092;8.800;2023-03-01T11:19:27;10.05;;;8.45;;
19814;SDS011;10067;53.092;8.800;2023-03-01T11:21:55;10.68;;;8.90;;
19814;SDS011;10067;53.092;8.800;2023-03-01T11:24:24;9.93;;;8.80;;
19814;SDS011;10067;53.092;8.800;2023-03-01T11:26:54;11.90;;;10.15;;
19814;SDS011;10067;53.092;8.800;2023-03-01T11:29:27;13.43;;;9.90;;
19814;SDS011;10067;53.092;8.800;2023-03-01T11:31:56;11.70;;;9.75;;
19814;SDS011;10067;53.092;8.800;2023-03-01T11:34:24;10.40;;;9.25;;
19814;SDS011;10067;53.092;8.800;2023-03-01T11:36:54;11.93;;;8.95;;
19814;SDS011;10067;53.092;8.800;2023-03-01T11:39:25;10.63;;;9.35;;
19814;SDS011;10067;53.092;8.800;2023-03-01T11:41:58;10.23;;;9.00;;
19814;SDS011;10067;53.092;8.800;2023-03-01T11:44:26;11.95;;;9.00;;
19814;SDS011;10067;53.092;8.800;2023-03-01T11:47:03;9.82;;;8.75;;
19814;SDS011;10067;53.092;8.800;2023-03-01T11:49:41;10.90;;;9.25;;
19814;SDS011;10067;53.092;8.800;2023-03-01T11:52:13;12.30;;;9.45;;
19814;SDS011;10067;53.092;8.800;2023-03-01T11:54:47;11.55;;;9.75;;
19814;SDS011;10067;53.092;8.800;2023-03-01T11:57:19;10.52;;;9.43;;
19814;SDS011;10067;53.092;8.800;2023-03-01T11:59:56;12.45;;;8.90;;
19814;SDS011;10067;53.092;8.800;2023-03-01T12:02:35;10.88;;;8.73;;
19814;SDS011;10067;53.092;8.800;2023-03-01T12:05:19;9.20;;;7.95;;
19814;SDS011;10067;53.092;8.800;2023-03-01T12:07:48;8.52;;;7.57;;
19814;SDS011;10067;53.092;8.800;2023-03-01T12:10:19;10.02;;;8.93;;
19814;SDS011;10067;53.092;8.800;2023-03-01T12:12:51;10.25;;;9.18;;
19814;SDS011;10067;53.092;8.800;2023-03-01T12:15:29;13.13;;;9.98;;
19814;SDS011;10067;53.092;8.800;2023-03-01T12:17:59;11.52;;;10.18;;
19814;SDS011;10067;53.092;8.800;2023-03-01T12:20:30;12.07;;;10.10;;
19814;SDS011;10067;53.092;8.800;2023-03-01T12:23:05;12.45;;;10.00;;
19814;SDS011;10067;53.092;8.800;2023-03-01T12:25:38;12.35;;;9.98;;
19814;SDS011;10067;53.092;8.800;2023-03-01T12:31:14;9.57;;;8.57;;
19814;SDS011;10067;53.092;8.800;2023-03-01T12:33:47;9.88;;;8.23;;
19814;SDS011;10067;53.092;8.800;2023-03-01T12:39:06;10.40;;;8.40;;
19814;SDS011;10067;53.092;8.800;2023-03-01T12:41:46;9.73;;;8.45;;
19814;SDS011;10067;53.092;8.800;2023-03-01T12:44:26;12.70;;;9.10;;
19814;SDS011;10067;53.092;8.800;2023-03-01T12:47:07;9.10;;;8.13;;
19814;SDS011;10067;53.092;8.800;2023-03-01T12:49:37;10.77;;;8.75;;
19814;SDS011;10067;53.092;8.800;2023-03-01T12:52:09;11.63;;;9.10;;
19814;SDS011;10067;53.092;8.800;2023-03-01T12:54:36;13.90;;;10.48;;
19814;SDS011;10067;53.092;8.800;2023-03-01T12:57:05;10.50;;;9.13;;
19814;SDS011;10067;53.092;8.800;2023-03-01T12:59:36;12.07;;;8.88;;
19814;SDS011;10067;53.092;8.800;2023-03-01T13:02:05;12.73;;;9.32;;
19814;SDS011;10067;53.092;8.800;2023-03-01T13:04:39;9.35;;;8.38;;
19814;SDS011;10067;53.092;8.800;2023-03-01T13:07:19;11.23;;;9.20;;
19814;SDS011;10067;53.092;8.800;2023-03-01T13:09:49;9.73;;;8.50;;
19814;SDS011;10067;53.092;8.800;2023-03-01T13:15:03;10.93;;;9.25;;
19814;SDS011;10067;53.092;8.800;2023-03-01T13:17:31;9.77;;;8.77;;
19814;SDS011;10067;53.092;8.800;2023-03-01T13:19:59;9.30;;;8.02;;
19814;SDS011;10067;53.092;8.800;2023-03-01T13:22:27;8.95;;;8.05;;
19814;SDS011;10067;53.092;8.800;2023-03-01T13:25:00;9.73;;;8.68;;
19814;SDS011;10067;53.092;8.800;2023-03-01T13:27:27;9.18;;;8.23;;
19814;SDS011;10067;53.092;8.800;2023-03-01T13:29:55;12.07;;;9.30;;
19814;SDS011;10067;53.092;8.800;2023-03-01T13:32:25;9.82;;;8.82;;
19814;SDS011;10067;53.092;8.800;2023-03-01T13:35:00;9.50;;;8.48;;
19814;SDS011;10067;53.092;8.800;2023-03-01T13:37:30;9.93;;;7.30;;
19814;SDS011;10067;53.092;8.800;2023-03-01T13:39:57;8.85;;;7.60;;
19814;SDS011;10067;53.092;8.800;2023-03-01T13:42:34;10.90;;;7.72;;
19814;SDS011;10067;53.092;8.800;2023-03-01T13:45:02;10.15;;;8.45;;
19814;SDS011;10067;53.092;8.800;2023-03-01T13:47:29;10.52;;;8.55;;
19814;SDS011;10067;53.092;8.800;2023-03-01T13:49:56;9.80;;;8.80;;
19814;SDS011;10067;53.092;8.800;2023-03-01T13:52:37;10.73;;;8.95;;
19814;SDS011;10067;53.092;8.800;2023-03-01T13:55:05;10.45;;;8.75;;
19814;SDS011;10067;53.092;8.800;2023-03-01T13:57:32;9.65;;;8.65;;
19814;SDS011;10067;53.092;8.800;2023-03-01T13:59:59;11.30;;;8.88;;
19814;SDS011;10067;53.092;8.800;2023-03-01T14:02:26;9.55;;;8.48;;
19814;SDS011;10067;53.092;8.800;2023-03-01T14:04:56;10.57;;;9.48;;
19814;SDS011;10067;53.092;8.800;2023-03-01T14:07:23;10.88;;;9.23;;
19814;SDS011;10067;53.092;8.800;2023-03-01T14:09:52;12.05;;;9.63;;
19814;SDS011;10067;53.092;8.800;2023-03-01T14:12:26;12.70;;;9.82;;
19814;SDS011;10067;53.092;8.800;2023-03-01T14:14:58;10.88;;;9.57;;
19814;SDS011;10067;53.092;8.800;2023-03-01T14:17:41;11.63;;;10.43;;
19814;SDS011;10067;53.092;8.800;2023-03-01T14:20:11;11.15;;;10.07;;
19814;SDS011;10067;53.092;8.800;2023-03-01T14:22:38;12.02;;;10.43;;
19814;SDS011;10067;53.092;8.800;2023-03-01T14:25:16;12.30;;;10.13;;
19814;SDS011;10067;53.092;8.800;2023-03-01T14:27:43;11.32;;;10.23;;
19814;SDS011;10067;53.092;8.800;2023-03-01T14:30:10;11.27;;;10.18;;
19814;SDS011;10067;53.092;8.800;2023-03-01T14:32:39;16.30;;;11.60;;
19814;SDS011;10067;53.092;8.800;2023-03-01T14:35:18;13.10;;;11.65;;
19814;SDS011;10067;53.092;8.800;2023-03-01T14:37:45;11.30;;;10.10;;
19814;SDS011;10067;53.092;8.800;2023-03-01T14:42:48;11.60;;;10.38;;
19814;SDS011;10067;53.092;8.800;2023-03-01T14:45:14;17.05;;;10.15;;
19814;SDS011;10067;53.092;8.800;2023-03-01T14:47:41;14.52;;;11.68;;